KSTC

St Cloud Regional Airport

St Cloud, Minnesota, USA
METAR KSTC 252153Z 27005KT 10SM CLR 31/11 A2967 RMK AO2 LTG DSNT SE AND S SLP048 T03060106
Observed Flight Rules
May-25 @ 21:53 UTC (50 minutes ago) Visual Flight Rules
Wind Visibility Clouds
270° at 5 knots 10 miles
  • Clear skies
Temperatures Readings
Current 31°C / 88°F
Dewpoint 11°C / 52°F
Humidity 29%
Altimeter 29.67" Hg
Pressure 1004.8 hPa
Elevation 314
METAR KSTC 252153Z 27005KT 10SM CLR 31/11 A2967 RMK AO2 LTG DSNT SE AND S SLP048 T03060106
Observed Flight Rules
May-25 @ 21:53 UTC
(50 minutes ago)
VFR
Wind Visibility
270° at 5 knots 10 miles
Clouds
  • Clear skies
Temperature Dewpoint
31°C / 88°F 11°C / 52°F
Humidity Altimeter Pressure
29% 29.67" Hg 1004.8 hPa